createdAt,value
2017-09-23T00:00:54.702Z,37.1
2017-09-23T00:01:56.429Z,33.0
2017-09-23T00:02:58.093Z,30.4
2017-09-23T00:03:59.734Z,30.1
2017-09-23T00:05:01.390Z,31.5
2017-09-23T00:06:03.045Z,33.0
2017-09-23T00:07:04.715Z,29.6
2017-09-23T00:08:06.368Z,32.2
2017-09-23T00:09:08.018Z,29.6
2017-09-23T00:10:09.666Z,31.1
2017-09-23T00:11:11.386Z,30.6
2017-09-23T00:12:13.045Z,33.1
2017-09-23T00:13:14.718Z,33.4
2017-09-23T00:14:16.370Z,32.3
2017-09-23T00:15:18.026Z,34.2
2017-09-23T00:16:19.685Z,36.7
2017-09-23T00:17:21.364Z,33.4
2017-09-23T00:18:23.029Z,36.9
2017-09-23T00:19:24.677Z,40.1
2017-09-23T00:20:26.395Z,35.5
2017-09-23T00:21:28.083Z,33.2
2017-09-23T00:22:29.758Z,34.5
2017-09-23T00:23:31.411Z,31.6
2017-09-23T00:24:33.095Z,34.9
2017-09-23T00:25:34.771Z,33.6
2017-09-23T00:26:36.428Z,36.9
2017-09-23T00:27:38.093Z,34.4
2017-09-23T00:28:39.739Z,39.3
2017-09-23T00:29:41.490Z,31.6
2017-09-23T00:30:43.134Z,31.0
2017-09-23T00:31:44.782Z,29.5
2017-09-23T00:32:46.433Z,30.7
2017-09-23T00:33:48.093Z,28.9
2017-09-23T00:34:49.784Z,34.7
2017-09-23T00:35:51.432Z,30.1
2017-09-23T00:36:53.091Z,31.4
2017-09-23T00:37:54.752Z,35.2
2017-09-23T00:38:56.475Z,34.0
2017-09-23T00:39:58.125Z,38.8
2017-09-23T00:40:59.799Z,38.9
2017-09-23T00:42:01.451Z,39.0
2017-09-23T00:43:03.105Z,44.3
2017-09-23T00:44:04.778Z,40.7
2017-09-23T00:45:06.427Z,36.7
2017-09-23T00:46:08.078Z,34.9
2017-09-23T00:47:09.730Z,38.3
2017-09-23T00:48:11.441Z,36.2
2017-09-23T00:49:13.091Z,40.2
2017-09-23T00:50:14.746Z,34.0
2017-09-23T00:51:16.410Z,31.2
2017-09-23T00:52:18.060Z,33.3
2017-09-23T00:53:19.719Z,28.1
2017-09-23T00:54:21.379Z,32.9
2017-09-23T00:55:23.043Z,34.0
2017-09-23T00:56:24.699Z,39.6
2017-09-23T00:57:26.389Z,38.6
2017-09-23T00:58:28.047Z,43.0
2017-09-23T00:59:29.700Z,42.0
2017-09-23T01:00:31.354Z,42.9
2017-09-23T01:01:33.033Z,44.9
2017-09-23T01:02:34.691Z,55.9
2017-09-23T01:03:36.339Z,48.8
2017-09-23T01:04:37.998Z,42.0
2017-09-23T01:05:39.667Z,43.3
2017-09-23T01:06:41.316Z,41.1
2017-09-23T01:07:42.969Z,37.0
2017-09-23T01:08:44.632Z,38.1
2017-09-23T01:09:46.285Z,35.3
2017-09-23T01:10:47.945Z,38.3
2017-09-23T01:11:49.598Z,38.2
2017-09-23T01:12:51.256Z,38.8
2017-09-23T01:13:52.914Z,37.3
2017-09-23T01:14:54.563Z,36.8
2017-09-23T01:15:56.219Z,35.5
2017-09-23T01:16:57.873Z,33.0
2017-09-23T01:17:59.528Z,41.2
2017-09-23T01:19:01.185Z,34.0
2017-09-23T01:20:02.843Z,42.4
2017-09-23T01:21:04.497Z,40.1
2017-09-23T01:22:06.145Z,38.7
2017-09-23T01:23:07.795Z,42.8
2017-09-23T01:24:09.460Z,45.5
2017-09-23T01:25:11.118Z,42.6
2017-09-23T01:26:12.801Z,47.8
2017-09-23T01:27:14.456Z,52.1
2017-09-23T01:28:16.106Z,44.9
2017-09-23T01:29:17.772Z,53.3
2017-09-23T01:30:19.431Z,48.6
2017-09-23T01:31:21.084Z,52.1
2017-09-23T01:32:22.740Z,59.2
2017-09-23T01:33:24.391Z,67.0
2017-09-23T01:34:26.079Z,82.9
2017-09-23T01:35:27.864Z,70.1
2017-09-23T01:36:29.718Z,55.1
2017-09-23T01:37:31.367Z,73.4
2017-09-23T01:38:37.244Z,52.8
2017-09-23T01:39:38.900Z,67.1
2017-09-23T01:40:40.559Z,60.2
2017-09-23T01:41:43.694Z,56.0
2017-09-23T01:42:45.430Z,60.8
2017-09-23T01:43:47.083Z,62.0
2017-09-23T01:44:48.742Z,52.6
2017-09-23T01:45:50.390Z,53.2
2017-09-23T01:46:52.047Z,62.2
2017-09-23T01:47:53.701Z,86.6
2017-09-23T01:48:55.361Z,66.8
2017-09-23T01:49:57.014Z,108.5
2017-09-23T01:50:58.666Z,151.6
2017-09-23T01:52:00.331Z,193.1
2017-09-23T01:53:01.980Z,229.5
2017-09-23T01:54:03.632Z,226.1
2017-09-23T01:55:05.281Z,197.2
2017-09-23T02:01:04.548Z,106.4
2017-09-23T02:02:06.206Z,88.7
2017-09-23T02:03:07.856Z,77.9
2017-09-23T02:04:09.510Z,114.1
2017-09-23T02:05:11.162Z,90.9
2017-09-23T02:06:12.817Z,86.8
2017-09-23T02:07:14.468Z,92.8
2017-09-23T02:08:16.118Z,87.9
2017-09-23T02:09:17.772Z,75.9
2017-09-23T02:10:19.428Z,71.2
2017-09-23T02:11:21.075Z,102.3
2017-09-23T02:12:22.729Z,110.7
2017-09-23T02:13:24.391Z,120.3
2017-09-23T02:14:26.044Z,103.3
2017-09-23T02:15:27.699Z,102.8
2017-09-23T02:16:29.352Z,97.7
2017-09-23T02:17:31.010Z,128.5
2017-09-23T02:18:32.667Z,95.8
2017-09-23T02:19:34.313Z,101.8
2017-09-23T02:20:35.977Z,96.6
2017-09-23T02:21:37.627Z,96.0
2017-09-23T02:22:39.287Z,91.2
2017-09-23T02:23:40.975Z,97.4
2017-09-23T02:24:42.627Z,87.3
2017-09-23T02:25:44.286Z,75.4
2017-09-23T02:26:45.957Z,71.6
2017-09-23T02:27:47.604Z,75.3
2017-09-23T02:28:49.260Z,66.3
2017-09-23T02:29:50.917Z,68.5
2017-09-23T02:30:52.564Z,58.1
2017-09-23T02:31:54.229Z,56.2
2017-09-23T02:32:55.888Z,52.7
2017-09-23T02:33:57.533Z,51.8
2017-09-23T02:34:59.189Z,56.5
2017-09-23T02:36:00.839Z,61.9
2017-09-23T02:37:02.493Z,59.6
2017-09-23T02:38:04.164Z,60.8
2017-09-23T02:39:05.879Z,66.7
2017-09-23T02:40:07.550Z,68.6
2017-09-23T02:41:09.189Z,60.5
2017-09-23T02:42:10.856Z,70.0
2017-09-23T02:43:12.538Z,70.5
2017-09-23T02:44:14.285Z,67.9
2017-09-23T02:45:15.954Z,76.9
2017-09-23T02:46:17.612Z,83.3
2017-09-23T02:47:19.266Z,84.4
2017-09-23T02:48:20.924Z,69.0
2017-09-23T02:49:22.578Z,63.2
2017-09-23T02:50:24.229Z,59.7
2017-09-23T02:51:25.880Z,53.4
2017-09-23T02:52:27.534Z,56.4
2017-09-23T02:53:29.189Z,52.0
2017-09-23T02:54:30.868Z,63.2
2017-09-23T02:55:32.522Z,60.1
2017-09-23T02:56:34.187Z,63.8
2017-09-23T02:57:35.842Z,57.7
2017-09-23T02:58:37.505Z,53.7
2017-09-23T02:59:39.157Z,46.6
2017-09-23T03:00:40.808Z,47.4
2017-09-23T03:01:42.462Z,51.6
2017-09-23T03:02:44.128Z,52.9
2017-09-23T03:03:45.777Z,62.8
2017-09-23T03:04:47.430Z,64.5
2017-09-23T03:05:49.099Z,72.5
2017-09-23T03:06:50.748Z,62.8
2017-09-23T03:07:52.412Z,69.4
2017-09-23T03:08:54.068Z,64.1
2017-09-23T03:09:55.715Z,58.9
2017-09-23T03:10:57.380Z,65.8
2017-09-23T03:11:59.027Z,53.2
2017-09-23T03:13:00.684Z,57.7
2017-09-23T03:14:02.334Z,55.8
2017-09-23T03:15:03.985Z,63.2
2017-09-23T03:16:05.640Z,63.2
2017-09-23T03:17:07.286Z,65.4
2017-09-23T03:18:08.936Z,87.6
2017-09-23T03:19:10.596Z,87.1
2017-09-23T03:20:12.255Z,97.3
2017-09-23T03:21:13.907Z,94.8
2017-09-23T03:22:15.562Z,100.4
2017-09-23T03:23:17.216Z,85.6
2017-09-23T03:24:18.879Z,60.5
2017-09-23T03:25:20.533Z,80.0
2017-09-23T03:26:22.193Z,84.1
2017-09-23T03:27:23.847Z,87.4
2017-09-23T03:28:25.499Z,112.4
2017-09-23T03:29:27.156Z,83.2
2017-09-23T03:30:28.813Z,64.4
2017-09-23T03:31:30.469Z,66.7
2017-09-23T03:32:32.116Z,73.5
2017-09-23T03:33:33.780Z,56.3
2017-09-23T03:34:35.447Z,57.5
2017-09-23T03:35:37.105Z,67.3
2017-09-23T03:36:38.759Z,55.9
2017-09-23T03:37:40.425Z,52.2
2017-09-23T03:38:42.093Z,55.4
2017-09-23T03:39:43.745Z,60.8
2017-09-23T03:40:45.397Z,54.9
2017-09-23T03:41:47.053Z,74.8
2017-09-23T03:42:48.714Z,83.4
2017-09-23T03:43:50.387Z,79.0
2017-09-23T03:44:52.047Z,89.3
2017-09-23T03:45:53.697Z,92.2
2017-09-23T03:46:55.359Z,91.0
2017-09-23T03:47:57.015Z,88.1
2017-09-23T03:48:58.673Z,65.4
2017-09-23T03:50:00.324Z,69.7
2017-09-23T03:51:01.971Z,75.8
2017-09-23T03:52:03.638Z,76.7
2017-09-23T03:53:05.290Z,75.0
2017-09-23T03:54:06.942Z,77.1
2017-09-23T03:55:08.685Z,69.6
2017-09-23T03:56:10.336Z,56.7
2017-09-23T03:57:11.989Z,54.9
2017-09-23T03:58:13.650Z,62.7
2017-09-23T03:59:15.325Z,72.6
2017-09-23T04:00:17.008Z,74.4
2017-09-23T04:01:18.658Z,68.2
2017-09-23T04:02:20.310Z,70.7
2017-09-23T04:03:21.970Z,58.2
2017-09-23T04:04:23.620Z,57.9
2017-09-23T04:05:25.281Z,52.2
2017-09-23T04:06:26.958Z,63.6
2017-09-23T04:07:28.616Z,61.2
2017-09-23T04:08:30.269Z,63.1
2017-09-23T04:09:31.925Z,69.9
2017-09-23T04:10:33.610Z,55.2
2017-09-23T04:11:35.268Z,64.1
2017-09-23T04:12:36.922Z,66.4
2017-09-23T04:13:38.569Z,71.1
2017-09-23T04:14:40.220Z,73.6
2017-09-23T04:15:41.873Z,85.5
2017-09-23T04:16:43.529Z,76.9
2017-09-23T04:17:45.182Z,86.9
2017-09-23T04:18:46.832Z,74.1
2017-09-23T04:19:48.497Z,84.5
2017-09-23T04:20:50.161Z,76.5
2017-09-23T04:21:51.830Z,71.1
2017-09-23T04:22:53.481Z,91.1
2017-09-23T04:23:55.137Z,81.1
2017-09-23T04:24:56.793Z,73.0
2017-09-23T04:25:58.445Z,83.6
2017-09-23T04:27:00.099Z,74.2
2017-09-23T04:28:01.756Z,65.3
2017-09-23T04:29:03.408Z,66.4
2017-09-23T04:30:05.071Z,55.6
2017-09-23T04:31:06.720Z,63.4
2017-09-23T04:32:08.377Z,61.9
2017-09-23T04:33:10.036Z,51.7
2017-09-23T04:34:11.683Z,47.0
2017-09-23T04:35:13.347Z,51.7
2017-09-23T04:36:15.004Z,46.2
2017-09-23T04:37:16.659Z,46.0
2017-09-23T04:38:18.310Z,45.3
2017-09-23T04:39:19.962Z,42.5
2017-09-23T04:40:21.610Z,40.9
2017-09-23T04:41:23.261Z,43.3
2017-09-23T04:42:24.964Z,40.3
2017-09-23T04:43:26.618Z,48.1
2017-09-23T04:44:28.289Z,48.5
2017-09-23T04:45:29.944Z,39.6
2017-09-23T04:46:31.654Z,43.5
2017-09-23T04:47:33.335Z,47.4
2017-09-23T04:48:34.982Z,43.6
2017-09-23T04:49:36.645Z,43.7
2017-09-23T04:50:38.300Z,42.5
2017-09-23T04:51:40.018Z,43.3
2017-09-23T04:52:41.665Z,40.7
2017-09-23T04:53:43.323Z,46.7
2017-09-23T04:54:44.973Z,45.0
2017-09-23T04:55:46.637Z,39.7
2017-09-23T04:56:48.294Z,42.2
2017-09-23T04:57:49.943Z,43.5
2017-09-23T04:58:51.659Z,46.7
2017-09-23T04:59:53.316Z,42.3
2017-09-23T05:00:54.971Z,48.3
2017-09-23T05:01:56.690Z,44.9
2017-09-23T05:02:58.304Z,43.6
2017-09-23T05:03:59.961Z,41.3
2017-09-23T05:05:01.620Z,38.5
2017-09-23T05:06:03.280Z,38.3
2017-09-23T05:07:06.428Z,35.4
2017-09-23T05:08:08.083Z,33.9
2017-09-23T05:09:09.739Z,33.4
2017-09-23T05:10:11.392Z,36.9
2017-09-23T05:11:13.049Z,38.2
2017-09-23T05:12:14.708Z,39.2
2017-09-23T05:13:16.370Z,38.7
2017-09-23T05:14:18.026Z,36.4
2017-09-23T05:15:19.690Z,34.8
2017-09-23T05:16:21.341Z,38.3
2017-09-23T05:17:23.007Z,36.5
2017-09-23T05:18:24.666Z,36.7
2017-09-23T05:19:26.323Z,38.1
2017-09-23T05:20:27.989Z,37.2
2017-09-23T05:21:29.662Z,34.4
2017-09-23T05:22:31.317Z,37.5
2017-09-23T05:23:33.020Z,33.1
2017-09-23T05:24:34.673Z,34.5
2017-09-23T05:25:36.344Z,30.7
2017-09-23T05:26:38.140Z,31.2
2017-09-23T05:27:39.811Z,33.3
2017-09-23T05:28:41.508Z,34.2
2017-09-23T05:29:43.153Z,39.3
2017-09-23T05:30:44.812Z,33.3
2017-09-23T05:31:46.470Z,35.1
2017-09-23T05:32:48.142Z,33.7
2017-09-23T05:33:49.808Z,38.7
2017-09-23T05:34:51.454Z,33.8
2017-09-23T05:35:53.110Z,32.9
2017-09-23T05:36:54.778Z,32.9
2017-09-23T05:37:56.431Z,32.3
2017-09-23T05:38:58.093Z,38.7
2017-09-23T05:39:59.750Z,33.4
2017-09-23T05:41:01.411Z,33.7
2017-09-23T05:42:03.072Z,40.2
2017-09-23T05:43:04.727Z,35.2
2017-09-23T05:44:06.389Z,36.0
2017-09-23T05:45:08.071Z,35.8
2017-09-23T05:46:09.721Z,37.8
2017-09-23T05:47:11.388Z,33.9
2017-09-23T05:48:13.115Z,36.2
2017-09-23T05:49:14.779Z,36.1
2017-09-23T05:50:16.456Z,33.8
2017-09-23T05:51:18.123Z,33.8
2017-09-23T05:52:19.784Z,38.3
2017-09-23T05:53:21.477Z,39.4
2017-09-23T05:54:23.119Z,36.6
2017-09-23T05:55:24.778Z,36.4
2017-09-23T06:01:53.698Z,41.1
2017-09-23T06:02:55.354Z,41.4
2017-09-23T06:04:47.177Z,31.5
2017-09-23T06:05:48.831Z,35.1
2017-09-23T06:06:50.478Z,32.0
2017-09-23T06:07:52.132Z,35.7
2017-09-23T06:08:53.797Z,34.9
2017-09-23T06:09:55.464Z,33.4
2017-09-23T06:10:57.135Z,33.2
2017-09-23T06:11:58.793Z,32.5
2017-09-23T06:13:00.458Z,34.4
2017-09-23T06:14:02.123Z,31.6
2017-09-23T06:15:03.793Z,39.6
2017-09-23T06:16:05.453Z,33.8
2017-09-23T06:17:07.118Z,39.1
2017-09-23T06:18:08.781Z,33.5
2017-09-23T06:19:10.446Z,34.4
2017-09-23T06:20:12.107Z,32.6
2017-09-23T06:21:13.762Z,32.6
2017-09-23T06:22:15.421Z,34.1
2017-09-23T06:23:17.080Z,37.4
2017-09-23T06:24:18.747Z,31.4
2017-09-23T06:25:20.419Z,37.0
2017-09-23T06:26:22.082Z,31.8
2017-09-23T06:27:23.738Z,31.6
2017-09-23T06:28:25.400Z,36.2
2017-09-23T06:29:27.061Z,34.0
2017-09-23T06:30:28.734Z,31.9
2017-09-23T06:31:30.391Z,36.9
2017-09-23T06:32:32.063Z,36.7
2017-09-23T06:33:33.749Z,33.6
2017-09-23T06:34:35.408Z,38.3
2017-09-23T06:35:37.068Z,37.1
2017-09-23T06:36:38.741Z,34.6
2017-09-23T06:37:40.394Z,32.6
2017-09-23T06:38:42.055Z,31.8
2017-09-23T06:39:43.717Z,33.6
2017-09-23T06:40:45.382Z,34.1
2017-09-23T06:41:47.036Z,32.3
2017-09-23T06:42:48.700Z,36.7
2017-09-23T06:43:50.361Z,29.7
2017-09-23T06:44:52.022Z,35.0
2017-09-23T06:45:53.709Z,34.2
2017-09-23T06:46:55.380Z,35.2
2017-09-23T06:47:57.043Z,36.0
2017-09-23T06:48:58.714Z,33.5
2017-09-23T06:50:00.388Z,31.6
2017-09-23T06:51:02.033Z,31.6
2017-09-23T06:52:03.700Z,30.0
2017-09-23T06:53:05.366Z,29.6
2017-09-23T06:54:07.036Z,31.9
2017-09-23T06:55:08.694Z,29.5
2017-09-23T06:56:10.493Z,30.7
2017-09-23T06:57:12.146Z,32.1
2017-09-23T06:58:13.808Z,33.5
2017-09-23T06:59:15.491Z,34.2
2017-09-23T07:00:17.157Z,37.1
2017-09-23T07:01:18.826Z,35.9
2017-09-23T07:02:20.510Z,44.4
2017-09-23T07:03:22.167Z,43.1
2017-09-23T07:04:23.817Z,39.8
2017-09-23T07:05:25.489Z,34.4
2017-09-23T07:06:27.146Z,31.5
2017-09-23T07:07:28.846Z,33.0
2017-09-23T07:08:30.515Z,34.4
2017-09-23T07:09:32.167Z,35.0
2017-09-23T07:10:33.884Z,32.9
2017-09-23T07:11:35.607Z,30.5
2017-09-23T07:12:37.269Z,32.0
2017-09-23T07:13:38.924Z,28.6
2017-09-23T07:14:40.589Z,29.0
2017-09-23T07:15:42.288Z,32.5
2017-09-23T07:16:43.979Z,26.6
2017-09-23T07:17:45.652Z,26.8
2017-09-23T07:18:47.318Z,29.1
2017-09-23T07:19:49.022Z,27.9
2017-09-23T07:20:50.690Z,27.3
2017-09-23T07:21:52.359Z,24.9
2017-09-23T07:22:54.029Z,28.5
2017-09-23T07:23:55.707Z,26.8
2017-09-23T07:24:57.439Z,29.4
2017-09-23T07:25:59.218Z,27.0
2017-09-23T07:27:00.868Z,29.9
2017-09-23T07:28:02.529Z,24.6
2017-09-23T07:29:04.199Z,23.3
2017-09-23T07:30:05.898Z,22.5
2017-09-23T07:31:07.570Z,22.6
2017-09-23T07:32:09.231Z,21.2
2017-09-23T07:33:10.888Z,22.9
2017-09-23T07:34:12.550Z,22.6
2017-09-23T07:35:14.246Z,21.9
2017-09-23T07:36:15.903Z,26.4
2017-09-23T07:37:17.589Z,23.4
2017-09-23T07:38:19.270Z,26.2
2017-09-23T07:39:20.961Z,26.2
2017-09-23T07:40:22.639Z,28.2
2017-09-23T07:41:24.330Z,28.6
2017-09-23T07:42:26.022Z,29.6
2017-09-23T07:43:27.693Z,28.2
2017-09-23T07:44:29.411Z,30.5
2017-09-23T07:45:31.147Z,31.0
2017-09-23T07:46:32.794Z,29.1
2017-09-23T07:47:34.454Z,24.4
2017-09-23T07:48:36.118Z,24.3
2017-09-23T07:49:37.776Z,24.5
2017-09-23T07:50:39.438Z,27.6
2017-09-23T07:51:41.110Z,26.4
2017-09-23T07:52:42.783Z,26.2
2017-09-23T07:53:44.501Z,26.3
2017-09-23T07:54:46.172Z,31.4
2017-09-23T07:55:47.837Z,29.0
2017-09-23T07:56:49.539Z,32.0
2017-09-23T07:57:51.189Z,30.3
2017-09-23T07:58:52.873Z,29.8
2017-09-23T07:59:54.574Z,32.2
2017-09-23T08:00:56.229Z,29.1
2017-09-23T08:01:57.903Z,35.3
2017-09-23T08:02:59.553Z,33.0
2017-09-23T08:04:01.299Z,31.3
2017-09-23T08:05:03.037Z,31.4
2017-09-23T08:06:04.698Z,32.7
2017-09-23T08:07:06.368Z,33.9
2017-09-23T08:08:08.032Z,35.5
2017-09-23T08:09:09.687Z,36.3
2017-09-23T08:10:11.355Z,34.4
2017-09-23T08:11:13.030Z,33.9
2017-09-23T08:12:14.703Z,37.0
2017-09-23T08:13:16.367Z,29.7
2017-09-23T08:14:18.041Z,35.0
2017-09-23T08:15:19.711Z,32.2
2017-09-23T08:16:21.379Z,33.4
2017-09-23T08:17:23.047Z,32.2
2017-09-23T08:18:24.728Z,34.4
2017-09-23T08:19:26.411Z,33.2
2017-09-23T08:20:28.096Z,33.8
2017-09-23T08:21:29.765Z,35.6
2017-09-23T08:22:31.432Z,35.0
2017-09-23T08:23:33.130Z,34.1
2017-09-23T08:24:34.856Z,39.2
2017-09-23T08:25:36.524Z,37.6
2017-09-23T08:26:38.488Z,40.7
2017-09-23T08:27:40.152Z,41.2
2017-09-23T08:28:41.822Z,38.5
2017-09-23T08:29:43.497Z,37.0
2017-09-23T08:30:45.169Z,42.7
2017-09-23T08:31:46.838Z,44.2
2017-09-23T08:32:48.504Z,42.2
2017-09-23T08:33:50.178Z,43.4
2017-09-23T08:34:51.849Z,42.9
2017-09-23T08:35:53.509Z,42.8
2017-09-23T08:36:55.175Z,41.8
2017-09-23T08:37:56.851Z,46.0
2017-09-23T08:38:58.518Z,44.5
2017-09-23T08:40:00.188Z,43.2
2017-09-23T08:41:01.836Z,43.9
2017-09-23T08:42:03.519Z,43.4
2017-09-23T08:43:05.185Z,41.5
2017-09-23T08:44:06.917Z,44.2
2017-09-23T08:45:08.588Z,47.3
2017-09-23T08:46:10.282Z,48.1
2017-09-23T08:47:12.068Z,47.8
2017-09-23T08:48:13.746Z,44.5
2017-09-23T08:49:15.413Z,48.4
2017-09-23T08:50:17.081Z,46.1
2017-09-23T08:51:18.749Z,52.1
2017-09-23T08:52:20.417Z,50.5
2017-09-23T08:53:22.207Z,54.2
2017-09-23T08:54:23.871Z,46.7
2017-09-23T08:55:25.549Z,45.5
2017-09-23T08:56:27.222Z,49.2
2017-09-23T08:57:28.886Z,47.9
2017-09-23T08:58:30.552Z,48.0
2017-09-23T08:59:32.224Z,52.3
2017-09-23T09:00:33.908Z,53.4
2017-09-23T09:01:35.594Z,54.1
2017-09-23T09:02:37.261Z,54.6
2017-09-23T09:03:38.928Z,57.8
2017-09-23T09:04:40.600Z,60.1
2017-09-23T09:05:42.304Z,57.1
2017-09-23T09:06:43.983Z,59.0
2017-09-23T09:07:45.644Z,58.1
2017-09-23T09:08:47.324Z,60.7
2017-09-23T09:09:48.997Z,64.1
2017-09-23T09:10:50.663Z,56.7
2017-09-23T09:11:53.989Z,63.5
2017-09-23T09:12:56.520Z,58.9
2017-09-23T09:13:59.526Z,60.8
2017-09-23T09:15:02.032Z,58.3
2017-09-23T09:16:03.998Z,56.0
2017-09-23T09:17:05.859Z,57.0
2017-09-23T09:18:07.529Z,50.4
2017-09-23T09:19:09.203Z,54.3
2017-09-23T09:20:10.876Z,59.3
2017-09-23T09:21:12.781Z,56.0
2017-09-23T09:22:14.458Z,55.8
2017-09-23T09:23:16.139Z,51.6
2017-09-23T09:24:17.816Z,54.3
2017-09-23T09:25:19.488Z,54.1
2017-09-23T09:26:21.195Z,52.6
2017-09-23T09:27:22.885Z,53.6
2017-09-23T09:28:25.432Z,48.9
2017-09-23T09:29:27.108Z,50.4
2017-09-23T09:30:28.787Z,52.1
2017-09-23T09:31:30.453Z,49.5
2017-09-23T09:32:32.174Z,45.7
2017-09-23T09:33:33.886Z,44.5
2017-09-23T09:34:35.576Z,47.0
2017-09-23T09:35:37.247Z,45.8
2017-09-23T09:36:38.927Z,43.6
2017-09-23T09:37:40.601Z,42.7
2017-09-23T09:38:42.270Z,46.0
2017-09-23T09:39:43.961Z,47.3
2017-09-23T09:40:46.314Z,48.7
2017-09-23T09:41:47.995Z,42.0
2017-09-23T09:42:49.666Z,40.6
2017-09-23T09:43:51.424Z,42.0
2017-09-23T09:44:53.104Z,40.7
2017-09-23T09:45:54.782Z,38.4
2017-09-23T09:46:56.458Z,37.8
2017-09-23T09:47:58.331Z,38.8
2017-09-23T09:49:00.038Z,38.4
2017-09-23T09:50:01.715Z,38.6
2017-09-23T09:51:03.412Z,39.4
2017-09-23T09:52:05.082Z,37.6
2017-09-23T09:53:06.749Z,41.1
2017-09-23T09:54:14.405Z,39.1
2017-09-23T10:01:27.731Z,42.3
2017-09-23T10:02:29.399Z,41.7
2017-09-23T10:03:31.065Z,37.1
2017-09-23T10:04:32.725Z,38.5
2017-09-23T10:05:34.391Z,41.2
2017-09-23T10:06:36.058Z,42.2
2017-09-23T10:07:37.727Z,39.1
2017-09-23T10:08:39.498Z,35.0
2017-09-23T10:09:41.166Z,39.1
2017-09-23T10:10:42.853Z,41.2
2017-09-23T10:11:44.527Z,35.9
2017-09-23T10:12:46.202Z,34.0
2017-09-23T10:13:47.875Z,38.4
2017-09-23T10:14:49.558Z,38.8
2017-09-23T10:15:51.227Z,38.3
2017-09-23T10:16:52.912Z,40.6
2017-09-23T10:17:54.585Z,36.5
2017-09-23T10:18:56.251Z,35.8
2017-09-23T10:19:57.939Z,37.0
2017-09-23T10:20:59.610Z,36.0
2017-09-23T10:22:01.286Z,33.9
2017-09-23T10:23:02.981Z,37.2
2017-09-23T10:24:04.723Z,37.8
2017-09-23T10:25:06.391Z,33.5
2017-09-23T10:26:08.054Z,36.1
2017-09-23T10:27:09.753Z,36.5
2017-09-23T10:28:11.410Z,34.6
2017-09-23T10:29:13.094Z,34.4
2017-09-23T10:30:14.776Z,37.2
2017-09-23T10:31:16.442Z,34.1
2017-09-23T10:32:18.168Z,33.5
2017-09-23T10:33:19.835Z,36.8
2017-09-23T10:34:21.517Z,34.8
2017-09-23T10:35:23.196Z,34.7
2017-09-23T10:36:24.858Z,34.0
2017-09-23T10:37:26.531Z,35.6
2017-09-23T10:38:28.203Z,36.8
2017-09-23T10:39:29.880Z,35.6
2017-09-23T10:40:31.560Z,35.8
2017-09-23T10:41:33.256Z,35.1
2017-09-23T10:42:34.923Z,35.3
2017-09-23T10:43:36.594Z,38.5
2017-09-23T10:44:38.294Z,36.6
2017-09-23T10:45:39.959Z,34.1
2017-09-23T10:46:41.662Z,33.7
2017-09-23T10:47:43.292Z,32.3
2017-09-23T10:48:44.960Z,35.1
2017-09-23T10:49:46.650Z,33.5
2017-09-23T10:50:48.322Z,32.9
2017-09-23T10:51:49.992Z,33.4
2017-09-23T10:52:51.657Z,32.8
2017-09-23T10:53:53.328Z,30.7
2017-09-23T10:54:54.997Z,29.6
2017-09-23T10:55:56.680Z,29.2
2017-09-23T10:56:58.336Z,31.6
2017-09-23T10:58:00.021Z,31.2
2017-09-23T10:59:01.697Z,31.4
2017-09-23T11:00:03.366Z,27.1
2017-09-23T11:01:05.038Z,27.6
2017-09-23T11:02:06.705Z,30.2
2017-09-23T11:03:08.381Z,27.3
2017-09-23T11:04:10.046Z,28.6
2017-09-23T11:05:11.730Z,30.8
2017-09-23T11:06:13.396Z,30.4
2017-09-23T11:07:15.064Z,29.3
2017-09-23T11:08:16.740Z,28.1
2017-09-23T11:09:18.424Z,28.6
2017-09-23T11:10:20.113Z,30.8
2017-09-23T11:11:21.794Z,30.1
2017-09-23T11:12:23.476Z,30.3
2017-09-23T11:13:25.148Z,32.0
2017-09-23T11:14:26.806Z,28.9
2017-09-23T11:15:28.501Z,30.3
2017-09-23T11:16:30.170Z,33.8
2017-09-23T11:17:31.847Z,32.3
2017-09-23T11:18:33.537Z,31.1
2017-09-23T11:19:35.210Z,30.9
2017-09-23T11:20:36.897Z,30.6
2017-09-23T11:21:38.581Z,28.2
2017-09-23T11:22:40.274Z,28.2
2017-09-23T11:23:41.950Z,32.3
2017-09-23T11:24:43.620Z,27.1
2017-09-23T11:25:45.298Z,26.6
2017-09-23T11:26:46.970Z,28.2
2017-09-23T11:27:48.645Z,26.9
2017-09-23T11:28:50.329Z,29.3
2017-09-23T11:29:51.994Z,29.0
2017-09-23T11:30:53.658Z,26.8
2017-09-23T11:31:55.328Z,32.9
2017-09-23T11:32:56.999Z,29.3
2017-09-23T11:33:58.670Z,30.1
2017-09-23T11:35:00.338Z,30.1
2017-09-23T11:36:02.005Z,27.4
2017-09-23T11:37:03.680Z,30.8
2017-09-23T11:38:05.400Z,27.4
2017-09-23T11:39:07.081Z,27.6
2017-09-23T11:40:08.759Z,30.2
2017-09-23T11:41:10.435Z,28.9
2017-09-23T11:42:12.113Z,29.7
2017-09-23T11:43:13.776Z,30.9
2017-09-23T11:44:15.446Z,28.4
2017-09-23T11:45:17.110Z,26.7
2017-09-23T11:46:18.786Z,29.5
2017-09-23T11:47:20.451Z,31.0
2017-09-23T11:48:22.142Z,29.9
2017-09-23T11:49:23.816Z,28.1
2017-09-23T11:50:25.482Z,29.6
2017-09-23T11:51:27.160Z,29.9
2017-09-23T11:52:28.821Z,27.3
2017-09-23T11:53:30.497Z,29.2
2017-09-23T11:54:32.187Z,28.8
2017-09-23T11:55:33.863Z,26.8
2017-09-23T11:56:35.527Z,29.6
2017-09-23T11:57:37.192Z,30.2
2017-09-23T11:58:38.860Z,30.5
2017-09-23T11:59:40.535Z,28.1
2017-09-23T12:00:42.221Z,29.3
2017-09-23T12:01:43.894Z,30.7
2017-09-23T12:02:45.611Z,27.6
2017-09-23T12:03:47.278Z,28.7
2017-09-23T12:04:48.952Z,30.0
2017-09-23T12:05:50.631Z,28.5
2017-09-23T12:06:52.295Z,25.8
2017-09-23T12:07:53.962Z,28.7
2017-09-23T12:08:55.633Z,28.6
2017-09-23T12:09:57.309Z,29.5
2017-09-23T12:10:58.985Z,27.3
2017-09-23T12:12:00.647Z,28.2
2017-09-23T12:13:02.321Z,28.4
2017-09-23T12:14:03.986Z,26.5
2017-09-23T12:15:05.652Z,29.6
2017-09-23T12:16:07.319Z,30.7
2017-09-23T12:17:08.990Z,28.1
2017-09-23T12:18:10.662Z,29.7
2017-09-23T12:19:12.346Z,28.0
2017-09-23T12:20:14.015Z,28.6
2017-09-23T12:21:15.688Z,28.1
2017-09-23T12:22:17.360Z,30.5
2017-09-23T12:23:19.026Z,32.5
2017-09-23T12:24:20.692Z,30.8
2017-09-23T12:25:22.374Z,35.2
2017-09-23T12:26:24.048Z,36.1
2017-09-23T12:27:25.718Z,33.7
2017-09-23T12:28:27.379Z,33.6
2017-09-23T12:29:29.056Z,33.0
2017-09-23T12:30:30.861Z,36.3
2017-09-23T12:31:32.523Z,35.5
2017-09-23T12:32:34.186Z,39.8
2017-09-23T12:33:35.851Z,40.7
2017-09-23T12:34:37.519Z,40.1
2017-09-23T12:35:39.202Z,42.2
2017-09-23T12:36:40.870Z,41.0
2017-09-23T12:37:42.552Z,40.4
2017-09-23T12:38:44.218Z,40.3
2017-09-23T12:39:45.893Z,41.3
2017-09-23T12:40:47.555Z,39.7
2017-09-23T12:41:49.222Z,41.9
2017-09-23T12:42:50.896Z,41.4
2017-09-23T12:43:52.562Z,45.2
2017-09-23T12:44:54.232Z,42.8
2017-09-23T12:45:55.897Z,47.1
2017-09-23T12:46:57.577Z,44.5
2017-09-23T12:47:59.248Z,46.6
2017-09-23T12:49:00.911Z,47.0
2017-09-23T12:50:02.585Z,42.7
2017-09-23T12:51:04.245Z,44.3
2017-09-23T12:52:05.930Z,47.6
2017-09-23T12:53:07.597Z,47.2
2017-09-23T12:54:09.278Z,42.9
2017-09-23T12:55:10.936Z,43.8
2017-09-23T12:56:12.614Z,42.8
2017-09-23T12:57:14.286Z,41.6
2017-09-23T12:58:15.966Z,38.3
2017-09-23T12:59:17.630Z,39.3
2017-09-23T13:00:19.309Z,39.8
2017-09-23T13:01:20.980Z,40.7
2017-09-23T13:02:22.650Z,40.3
2017-09-23T13:03:24.321Z,40.9
2017-09-23T13:04:25.997Z,38.3
2017-09-23T13:05:27.668Z,39.2
2017-09-23T13:06:29.348Z,39.9
2017-09-23T13:07:31.017Z,36.3
2017-09-23T13:08:32.687Z,39.7
2017-09-23T13:09:34.358Z,34.7
2017-09-23T13:10:36.014Z,40.9
2017-09-23T13:11:37.685Z,40.9
2017-09-23T13:12:39.361Z,36.3
2017-09-23T13:13:41.028Z,36.8
2017-09-23T13:14:42.697Z,39.0
2017-09-23T13:15:44.402Z,36.2
2017-09-23T13:16:46.068Z,35.6
2017-09-23T13:17:47.735Z,34.1
2017-09-23T13:18:49.422Z,31.3
2017-09-23T13:19:51.098Z,32.2
2017-09-23T13:20:52.774Z,34.1
2017-09-23T13:21:54.478Z,33.3
2017-09-23T13:22:56.158Z,31.4
2017-09-23T13:23:57.850Z,34.5
2017-09-23T13:24:59.517Z,34.3
2017-09-23T13:26:01.190Z,29.3
2017-09-23T13:27:02.864Z,30.9
2017-09-23T13:28:04.541Z,28.5
2017-09-23T13:29:06.208Z,32.8
2017-09-23T13:30:07.879Z,30.6
2017-09-23T13:31:09.546Z,31.7
2017-09-23T13:32:11.279Z,32.7
2017-09-23T13:33:12.960Z,30.4
2017-09-23T13:34:14.640Z,33.6
2017-09-23T13:35:16.315Z,28.5
2017-09-23T13:36:17.988Z,31.1
2017-09-23T13:37:19.661Z,30.3
2017-09-23T13:38:21.329Z,30.5
2017-09-23T13:39:22.996Z,28.2
2017-09-23T13:40:24.689Z,27.0
2017-09-23T13:41:26.380Z,29.1
2017-09-23T13:42:28.056Z,28.8
2017-09-23T13:43:29.730Z,31.3
2017-09-23T13:44:31.422Z,30.0
2017-09-23T13:45:33.122Z,29.8
2017-09-23T13:46:34.814Z,27.9
2017-09-23T13:47:36.493Z,30.8
2017-09-23T13:48:38.183Z,27.1
2017-09-23T13:49:39.930Z,26.6
2017-09-23T13:50:41.603Z,30.5
2017-09-23T13:51:43.284Z,33.8
2017-09-23T13:52:44.994Z,33.5
2017-09-23T13:53:46.663Z,35.7
2017-09-23T13:54:48.333Z,34.7
2017-09-23T14:01:04.606Z,43.2
2017-09-23T14:02:06.265Z,47.9
2017-09-23T14:03:07.941Z,49.6